Time;durP1;ratioP1;P1;durP2;ratioP2;P2;SDS_P1;SDS_P2;PMS_P1;PMS_P2;Temp;Humidity;BMP_temperature;BMP_pressure;BME280_temperature;BME280_humidity;BME280_pressure;Samples;Min_cycle;Max_cycle;Signal;HPM_P1;HPM_P2
2021/05/05 00:01:08;;;;;;;;;;;;;;;17.57;41.46;94563.38;4991720;28;20013;-80
2021/05/05 00:06:09;;;;;;;;;;;;;;;17.56;42.24;94569.69;5081754;22;19922;-81
2021/05/05 00:08:34;;;;;;;;;;;;;;;17.53;41.73;94567.63;4976980;28;19925;-80
2021/05/05 00:10:59;;;;;;;;;;;;;;;17.47;41.78;94571.41;4956056;28;19929;-81
2021/05/05 00:13:24;;;;;;;;;;;;;;;17.53;41.89;94562.38;4973362;28;19934;-80
2021/05/05 00:15:50;;;;;;;;;;;;;;;17.50;41.92;94561.09;4975584;28;20025;-80
2021/05/05 00:18:15;;;;;;;;;;;;;;;17.37;42.22;94557.28;4974693;28;19914;-80
2021/05/05 00:20:40;;;;;;;;;;;;;;;17.21;42.66;94552.50;4974439;28;20304;-81
2021/05/05 00:23:06;;;;;;;;;;;;;;;17.11;42.85;94545.50;4971919;28;19929;-81
2021/05/05 00:25:32;;;;;;;;;;;;;;;17.05;43.07;94541.34;4973396;28;19928;-82
2021/05/05 00:27:57;;;;;;;;;;;;;;;17.06;43.19;94548.16;4973230;28;19914;-81
2021/05/05 00:30:22;;;;;;;;;;;;;;;16.85;43.51;94559.94;4957681;28;19918;-81
2021/05/05 00:32:48;;;;;;;;;;;;;;;16.84;43.80;94553.13;5005607;23;20000;-81
2021/05/05 00:35:13;;;;;;;;;;;;;;;16.82;43.75;94550.00;5002515;28;19917;-81
2021/05/05 00:37:39;;;;;;;;;;;;;;;16.71;44.08;94547.44;5001926;28;19918;-80
2021/05/05 00:40:04;;;;;;;;;;;;;;;16.72;44.15;94545.59;5031430;28;19928;-79
2021/05/05 00:42:29;;;;;;;;;;;;;;;16.66;44.24;94546.69;5025021;28;19926;-80
2021/05/05 00:44:58;;;;;;;;;;;;;;;16.68;44.25;94542.75;5031623;22;20016;-82
2021/05/05 00:47:23;;;;;;;;;;;;;;;16.56;44.58;94534.41;4991270;28;19918;-82
2021/05/05 00:49:49;;;;;;;;;;;;;;;16.52;44.77;94536.03;4975303;28;19914;-81
2021/05/05 00:52:14;;;;;;;;;;;;;;;16.60;44.62;94529.44;4977197;28;19918;-81
2021/05/05 00:54:39;;;;;;;;;;;;;;;16.54;45.25;94525.25;4973441;28;19991;-81
2021/05/05 00:57:04;;;;;;;;;;;;;;;16.56;44.71;94523.91;4955983;28;19969;-82
2021/05/05 01:04:37;;;;;;;;;;;;;;;16.45;45.26;94525.09;4990785;28;19922;-81
2021/05/05 01:07:02;;;;;;;;;;;;;;;16.35;45.61;94517.28;4980461;28;19972;-80
2021/05/05 01:09:27;;;;;;;;;;;;;;;16.24;45.89;94506.06;5840225;22;19922;-80
2021/05/05 01:11:55;;;;;;;;;;;;;;;16.30;45.68;94512.88;5044305;23;19926;-80
2021/05/05 01:14:21;;;;;;;;;;;;;;;16.21;46.63;94525.00;4973248;28;19929;-82
2021/05/05 01:16:46;;;;;;;;;;;;;;;16.13;46.72;94521.13;4973714;28;20310;-81
2021/05/05 01:19:11;;;;;;;;;;;;;;;16.06;47.52;94518.00;4973147;28;19961;-81
2021/05/05 01:21:37;;;;;;;;;;;;;;;16.03;47.52;94521.19;4972449;28;19918;-80
2021/05/05 01:24:05;;;;;;;;;;;;;;;15.88;48.23;94510.78;4955816;28;20000;-80
2021/05/05 01:26:31;;;;;;;;;;;;;;;15.99;48.09;94499.19;4972208;28;19929;-80
2021/05/05 01:28:58;;;;;;;;;;;;;;;16.05;48.24;94500.69;5041072;22;19925;-79
2021/05/05 01:31:23;;;;;;;;;;;;;;;16.00;48.18;94498.13;4983288;28;19965;-80
2021/05/05 01:33:48;;;;;;;;;;;;;;;15.99;48.42;94506.25;5075520;22;20008;-80
2021/05/05 01:36:13;;;;;;;;;;;;;;;15.99;48.71;94501.81;4994896;22;20009;-80
2021/05/05 01:38:39;;;;;;;;;;;;;;;16.03;48.71;94496.78;4985979;28;19925;-80
2021/05/05 01:43:33;;;;;;;;;;;;;;;15.98;48.64;94507.31;5102363;22;19921;-78
2021/05/05 01:45:58;;;;;;;;;;;;;;;16.10;48.39;94513.00;4992978;28;19924;-79
2021/05/05 01:48:24;;;;;;;;;;;;;;;16.17;48.73;94513.47;4990971;28;19945;-80
2021/05/05 01:50:49;;;;;;;;;;;;;;;16.25;48.04;94512.88;4998749;28;19918;-78
2021/05/05 01:53:16;;;;;;;;;;;;;;;16.27;48.43;94502.09;4992107;28;19985;-79
2021/05/05 01:55:42;;;;;;;;;;;;;;;16.20;48.59;94505.06;4985516;28;20397;-78
2021/05/05 01:58:07;;;;;;;;;;;;;;;16.31;48.60;94497.91;5184593;22;19986;-79
2021/05/05 02:00:32;;;;;;;;;;;;;;;16.39;48.65;94492.03;5022246;28;19990;-79
2021/05/05 02:02:57;;;;;;;;;;;;;;;16.48;47.99;94493.03;5016796;28;19921;-79
2021/05/05 02:05:23;;;;;;;;;;;;;;;16.54;47.96;94484.03;5004899;28;19921;-80
2021/05/05 02:07:48;;;;;;;;;;;;;;;16.52;48.14;94494.03;5004791;22;19945;-79
2021/05/05 02:10:14;;;;;;;;;;;;;;;16.42;48.37;94483.63;4994620;28;19976;-79
2021/05/05 02:12:39;;;;;;;;;;;;;;;16.40;48.64;94491.00;4994789;28;20349;-79
2021/05/05 02:15:05;;;;;;;;;;;;;;;16.28;49.26;94487.97;4986620;28;19972;-79
2021/05/05 02:17:30;;;;;;;;;;;;;;;16.22;49.50;94489.81;4995407;28;19924;-81
2021/05/05 02:20:15;;;;;;;;;;;;;;;16.16;49.75;94486.47;4995775;28;19968;-82
2021/05/05 02:22:40;;;;;;;;;;;;;;;16.11;50.02;94483.88;4997215;28;19928;-81
2021/05/05 02:25:06;;;;;;;;;;;;;;;16.11;49.95;94486.50;5005100;28;20917;-80
2021/05/05 02:27:32;;;;;;;;;;;;;;;16.15;49.89;94479.66;4993589;28;19918;-79
2021/05/05 02:32:46;;;;;;;;;;;;;;;16.23;50.29;94486.13;4993566;23;19923;-80
2021/05/05 02:35:11;;;;;;;;;;;;;;;16.25;50.77;94483.25;4954021;28;20379;-79
2021/05/05 02:37:37;;;;;;;;;;;;;;;16.14;50.81;94483.34;4954534;28;19922;-80
2021/05/05 02:40:06;;;;;;;;;;;;;;;16.23;50.87;94490.59;4954171;28;19914;-80
2021/05/05 02:42:31;;;;;;;;;;;;;;;16.23;50.97;94480.09;4952517;28;20001;-79
2021/05/05 02:44:56;;;;;;;;;;;;;;;16.30;51.29;94480.59;4934799;29;20157;-80
2021/05/05 02:49:57;;;;;;;;;;;;;;;16.37;51.07;94491.53;5604599;22;19924;-80
2021/05/05 02:52:22;;;;;;;;;;;;;;;16.44;50.66;94489.41;4984659;28;19922;-80
2021/05/05 02:54:47;;;;;;;;;;;;;;;16.30;51.12;94485.84;4991623;28;19921;-80
2021/05/05 02:59:40;;;;;;;;;;;;;;;16.20;51.34;94481.44;4972323;28;19949;-80
2021/05/05 03:02:05;;;;;;;;;;;;;;;16.29;51.13;94471.16;4972614;28;20362;-80
2021/05/05 03:04:31;;;;;;;;;;;;;;;16.38;52.13;94485.22;4955051;28;19977;-80
2021/05/05 03:06:56;;;;;;;;;;;;;;;16.39;51.98;94468.44;4954082;29;19923;-81
2021/05/05 03:09:24;;;;;;;;;;;;;;;16.41;51.47;94489.94;4953415;28;19925;-81
2021/05/05 03:11:49;;;;;;;;;;;;;;;16.47;53.31;94491.47;5103064;22;20015;-81
2021/05/05 03:14:14;;;;;;;;;;;;;;;16.49;53.09;94494.59;4999662;28;19967;-80
2021/05/05 03:16:40;;;;;;;;;;;;;;;16.46;53.28;94479.41;5006299;28;20393;-82
2021/05/05 03:19:05;;;;;;;;;;;;;;;16.40;53.44;94480.50;5019631;28;19996;-82
2021/05/05 03:21:30;;;;;;;;;;;;;;;16.40;53.87;94481.28;5002789;28;19924;-82
2021/05/05 03:23:56;;;;;;;;;;;;;;;16.43;53.61;94486.00;5000956;28;19918;-81
2021/05/05 03:26:21;;;;;;;;;;;;;;;16.43;54.23;94485.19;5004087;28;19926;-81
2021/05/05 03:28:46;;;;;;;;;;;;;;;16.40;54.39;94483.13;5002588;28;19921;-81
2021/05/05 03:31:11;;;;;;;;;;;;;;;16.29;55.22;94479.03;5001578;28;20038;-81
2021/05/05 03:33:37;;;;;;;;;;;;;;;16.34;55.08;94492.09;5063064;22;19928;-81
2021/05/05 03:38:31;;;;;;;;;;;;;;;16.30;55.13;94484.00;5042981;22;19956;-82
2021/05/05 03:41:00;;;;;;;;;;;;;;;16.10;55.03;94482.28;4997155;28;19918;-82
2021/05/05 03:43:26;;;;;;;;;;;;;;;16.20;54.84;94482.22;4997323;28;19928;-82
2021/05/05 03:45:51;;;;;;;;;;;;;;;16.28;55.20;94487.97;5025437;22;19922;-81
2021/05/05 03:50:48;;;;;;;;;;;;;;;16.33;55.08;94470.31;5251290;22;19926;-81
2021/05/05 03:53:13;;;;;;;;;;;;;;;16.19;54.99;94475.41;4994878;28;19925;-81
2021/05/05 03:55:39;;;;;;;;;;;;;;;16.09;54.80;94485.97;4992326;28;20008;-81
2021/05/05 03:58:04;;;;;;;;;;;;;;;15.91;55.82;94497.91;4991876;28;20872;-81
2021/05/05 04:00:29;;;;;;;;;;;;;;;16.01;55.41;94499.69;4992386;28;19917;-79
2021/05/05 04:02:54;;;;;;;;;;;;;;;15.95;55.68;94511.28;4992866;28;20015;-77
2021/05/05 04:05:20;;;;;;;;;;;;;;;15.89;55.44;94504.47;4993241;28;20052;-79
2021/05/05 04:07:45;;;;;;;;;;;;;;;15.82;55.55;94507.41;4994874;28;20375;-81
2021/05/05 04:10:11;;;;;;;;;;;;;;;15.61;55.92;94504.09;4993341;28;20381;-77
2021/05/05 04:12:36;;;;;;;;;;;;;;;15.66;56.04;94507.78;4992111;28;19929;-77
2021/05/05 04:15:02;;;;;;;;;;;;;;;15.73;55.52;94503.78;4992806;28;19922;-78
2021/05/05 04:17:27;;;;;;;;;;;;;;;15.72;55.28;94507.47;4990661;28;19940;-77
2021/05/05 04:19:56;;;;;;;;;;;;;;;15.73;55.60;94500.38;4991594;28;19925;-77
2021/05/05 04:22:21;;;;;;;;;;;;;;;15.40;56.28;94504.44;4990875;28;20353;-77
2021/05/05 04:24:46;;;;;;;;;;;;;;;15.51;56.43;94511.22;5052743;22;19929;-77
2021/05/05 04:27:12;;;;;;;;;;;;;;;15.44;56.84;94501.00;5033094;23;19932;-77
2021/05/05 04:29:37;;;;;;;;;;;;;;;15.29;57.70;94515.00;5015091;28;20388;-79
2021/05/05 04:32:13;;;;;;;;;;;;;;;15.34;57.56;94503.69;5005500;28;19917;-84
2021/05/05 04:34:39;;;;;;;;;;;;;;;15.23;57.68;94512.63;5015805;28;19976;-79
2021/05/05 04:37:06;;;;;;;;;;;;;;;15.27;58.00;94511.03;5003125;28;19917;-77
2021/05/05 04:39:32;;;;;;;;;;;;;;;15.07;58.98;94505.88;5003105;28;19921;-77
2021/05/05 04:41:57;;;;;;;;;;;;;;;15.05;58.89;94500.91;4999582;28;19980;-76
2021/05/05 04:44:22;;;;;;;;;;;;;;;15.14;58.80;94509.81;5018693;28;19917;-76
2021/05/05 04:46:47;;;;;;;;;;;;;;;15.07;58.40;94505.88;4997840;28;19932;-77
2021/05/05 04:49:15;;;;;;;;;;;;;;;15.06;59.08;94507.72;5001348;28;19940;-76
2021/05/05 04:51:40;;;;;;;;;;;;;;;14.94;59.55;94508.00;4982424;28;20183;-75
2021/05/05 04:54:06;;;;;;;;;;;;;;;14.95;59.21;94504.34;4999195;23;19922;-75
2021/05/05 04:56:31;;;;;;;;;;;;;;;15.10;58.82;94502.72;4969974;28;19918;-75
2021/05/05 04:58:56;;;;;;;;;;;;;;;15.33;58.01;94504.75;4969999;28;19917;-76
2021/05/05 05:01:22;;;;;;;;;;;;;;;15.57;57.49;94508.28;4968890;28;19960;-76
2021/05/05 05:03:47;;;;;;;;;;;;;;;15.74;57.03;94520.28;4973081;28;19914;-75
2021/05/05 05:06:12;;;;;;;;;;;;;;;16.02;56.30;94511.75;4971663;28;20163;-76
2021/05/05 05:08:38;;;;;;;;;;;;;;;16.19;55.45;94517.38;4970827;28;19972;-76
2021/05/05 05:11:03;;;;;;;;;;;;;;;16.56;54.20;94516.03;4971387;28;20325;-76
2021/05/05 05:13:28;;;;;;;;;;;;;;;16.76;53.78;94505.41;4972322;28;19930;-76
2021/05/05 05:18:24;;;;;;;;;;;;;;;16.47;55.39;94512.47;5016623;22;19922;-79
2021/05/05 05:20:53;;;;;;;;;;;;;;;16.38;55.72;94514.88;5164470;22;19927;-82
2021/05/05 05:23:38;;;;;;;;;;;;;;;16.69;54.91;94520.69;4986343;28;19932;-81
2021/05/05 05:26:06;;;;;;;;;;;;;;;17.89;51.40;94518.81;4990998;28;19925;-82
2021/05/05 05:28:32;;;;;;;;;;;;;;;20.10;45.67;94518.06;4986881;28;20480;-80
2021/05/05 05:30:57;;;;;;;;;;;;;;;23.11;38.64;94511.28;5008152;23;19922;-77
2021/05/05 05:33:23;;;;;;;;;;;;;;;26.44;32.89;94514.34;4990616;28;20024;-77
2021/05/05 05:38:29;;;;;;;;;;;;;;;29.04;26.97;94518.41;5509997;23;19926;-78
2021/05/05 05:40:54;;;;;;;;;;;;;;;27.71;28.82;94529.41;4985139;28;19922;-78
2021/05/05 05:43:20;;;;;;;;;;;;;;;27.75;28.50;94516.91;4988893;28;20456;-77
2021/05/05 05:45:45;;;;;;;;;;;;;;;26.58;30.43;94533.41;4994578;28;19917;-78
2021/05/05 05:48:11;;;;;;;;;;;;;;;26.26;31.08;94527.13;4980099;28;19921;-79
2021/05/05 05:50:36;;;;;;;;;;;;;;;27.32;29.13;94534.56;4997360;28;19961;-78
2021/05/05 05:53:02;;;;;;;;;;;;;;;27.79;28.02;94536.47;4986754;28;20356;-78
2021/05/05 05:55:29;;;;;;;;;;;;;;;27.51;28.44;94536.56;4977772;28;20290;-77
2021/05/05 05:57:56;;;;;;;;;;;;;;;29.98;25.48;94540.22;5001964;28;19928;-77
2021/05/05 06:00:21;;;;;;;;;;;;;;;32.19;22.32;94551.34;5001151;28;19922;-77
2021/05/05 06:02:53;;;;;;;;;;;;;;;34.14;20.57;94547.59;5001466;28;19926;-78
2021/05/05 06:05:43;;;;;;;;;;;;;;;35.41;18.52;94550.97;4995729;28;19944;-79
2021/05/05 06:08:49;;;;;;;;;;;;;;;36.15;17.90;94541.47;4993800;28;19973;-80
2021/05/05 06:11:15;;;;;;;;;;;;;;;36.80;17.41;94545.06;4976707;28;19927;-79
2021/05/05 06:13:40;;;;;;;;;;;;;;;37.32;16.72;94533.91;4997961;28;19922;-79
2021/05/05 06:16:06;;;;;;;;;;;;;;;37.38;16.55;94520.63;5002101;28;19952;-81
2021/05/05 06:18:31;;;;;;;;;;;;;;;35.33;18.22;94530.53;5001421;28;19944;-80
2021/05/05 06:21:17;;;;;;;;;;;;;;;33.80;19.73;94531.81;5004219;28;20016;-82
2021/05/05 06:23:42;;;;;;;;;;;;;;;32.02;22.17;94525.88;5009144;28;19921;-80
2021/05/05 06:26:07;;;;;;;;;;;;;;;31.40;22.72;94520.41;5001068;28;19918;-79
2021/05/05 06:28:33;;;;;;;;;;;;;;;30.65;23.74;94513.53;4998805;28;19924;-82
2021/05/05 06:31:04;;;;;;;;;;;;;;;30.08;24.38;94502.06;5108801;22;19921;-81
2021/05/05 06:33:29;;;;;;;;;;;;;;;29.99;24.88;94523.00;5014753;28;19921;-80
2021/05/05 06:35:56;;;;;;;;;;;;;;;30.11;24.89;94510.19;5012107;28;19988;-81
2021/05/05 06:38:21;;;;;;;;;;;;;;;30.11;24.40;94509.41;5012731;28;19924;-81
2021/05/05 06:40:48;;;;;;;;;;;;;;;28.54;26.69;94514.78;5021983;28;19921;-82
2021/05/05 06:43:14;;;;;;;;;;;;;;;27.93;27.91;94518.06;5013364;28;20215;-81
2021/05/05 06:45:39;;;;;;;;;;;;;;;27.65;28.64;94517.44;5012927;28;19925;-81
2021/05/05 06:48:04;;;;;;;;;;;;;;;26.69;29.13;94523.03;5133654;22;19944;-81
2021/05/05 06:50:30;;;;;;;;;;;;;;;24.49;32.89;94518.44;4983586;28;20378;-80
2021/05/05 06:52:55;;;;;;;;;;;;;;;24.54;33.01;94515.56;4998524;28;19949;-81
2021/05/05 06:55:21;;;;;;;;;;;;;;;24.56;32.97;94507.25;4981066;28;19920;-83
2021/05/05 06:57:46;;;;;;;;;;;;;;;24.71;34.10;94501.31;4979906;28;19918;-83
2021/05/05 07:00:11;;;;;;;;;;;;;;;25.23;31.90;94502.69;4977140;28;20302;-83
2021/05/05 07:02:37;;;;;;;;;;;;;;;24.56;32.94;94491.31;4976681;28;20425;-82
2021/05/05 07:05:02;;;;;;;;;;;;;;;24.11;33.94;94496.53;4959176;28;19925;-83
2021/05/05 07:07:28;;;;;;;;;;;;;;;23.75;34.44;94487.22;4975217;28;19973;-82
2021/05/05 07:09:54;;;;;;;;;;;;;;;23.69;34.34;94491.19;4975249;28;19918;-82
2021/05/05 07:12:20;;;;;;;;;;;;;;;23.49;35.09;94491.91;4958724;28;19922;-81
2021/05/05 07:14:45;;;;;;;;;;;;;;;23.19;35.70;94483.94;4977299;28;20432;-81
2021/05/05 07:17:10;;;;;;;;;;;;;;;22.76;36.83;94490.13;4977550;28;19918;-83
2021/05/05 07:19:35;;;;;;;;;;;;;;;23.07;36.07;94483.81;4976525;28;19981;-81
2021/05/05 07:22:01;;;;;;;;;;;;;;;22.78;36.70;94495.13;4975969;28;19918;-81
2021/05/05 07:24:26;;;;;;;;;;;;;;;22.88;36.44;94500.09;4958923;28;19918;-81
2021/05/05 07:26:51;;;;;;;;;;;;;;;22.67;36.54;94493.91;4957729;28;19925;-83
2021/05/05 07:29:16;;;;;;;;;;;;;;;22.56;37.14;94487.38;4975067;28;20033;-81
2021/05/05 07:31:42;;;;;;;;;;;;;;;22.96;36.43;94487.94;4973023;28;19918;-80
2021/05/05 07:34:09;;;;;;;;;;;;;;;23.49;35.61;94486.59;4975927;28;19928;-80
2021/05/05 07:36:34;;;;;;;;;;;;;;;23.39;35.16;94492.25;4957962;28;19940;-82
2021/05/05 07:47:29;;;;;;;;;;;;;;;22.15;36.91;94478.84;4958013;28;19929;-80
2021/05/05 07:49:56;;;;;;;;;;;;;;;22.19;37.99;94481.66;4951677;29;19981;-82
2021/05/05 07:52:21;;;;;;;;;;;;;;;22.74;36.61;94472.97;4954541;28;19922;-79
2021/05/05 07:54:47;;;;;;;;;;;;;;;22.31;37.25;94476.50;4968965;28;20310;-81
2021/05/05 07:57:12;;;;;;;;;;;;;;;22.66;36.40;94476.44;4952527;28;20386;-82
2021/05/05 07:59:38;;;;;;;;;;;;;;;22.54;37.10;94478.94;4952698;29;19925;-82
2021/05/05 08:02:03;;;;;;;;;;;;;;;22.51;36.30;94472.41;4953056;28;19919;-82
2021/05/05 08:04:28;;;;;;;;;;;;;;;22.07;37.96;94479.63;4959064;28;19918;-82
2021/05/05 08:06:54;;;;;;;;;;;;;;;21.76;38.68;94465.72;4971942;28;19929;-82
2021/05/05 08:09:21;;;;;;;;;;;;;;;21.75;38.51;94466.78;4960700;28;19918;-82
2021/05/05 08:11:55;;;;;;;;;;;;;;;21.95;38.38;94458.25;4969554;29;19937;-81
2021/05/05 08:14:21;;;;;;;;;;;;;;;22.26;37.56;94452.03;4956362;28;19926;-81
2021/05/05 08:16:46;;;;;;;;;;;;;;;22.48;37.69;94446.56;4955784;28;19922;-81
2021/05/05 08:19:12;;;;;;;;;;;;;;;22.68;36.35;94448.53;4955010;28;19989;-82
2021/05/05 08:21:37;;;;;;;;;;;;;;;22.74;36.17;94436.63;4955730;29;19970;-83
2021/05/05 08:24:03;;;;;;;;;;;;;;;22.84;35.20;94429.47;4955560;28;19947;-82
2021/05/05 08:26:30;;;;;;;;;;;;;;;22.87;34.96;94434.91;4972322;28;19924;-82
2021/05/05 08:28:55;;;;;;;;;;;;;;;22.92;34.59;94423.34;4956509;28;19922;-82
2021/05/05 08:31:20;;;;;;;;;;;;;;;22.87;35.58;94423.53;4957630;28;20094;-82
2021/05/05 08:33:46;;;;;;;;;;;;;;;22.92;35.01;94420.69;4956734;29;19957;-82
2021/05/05 08:36:11;;;;;;;;;;;;;;;23.00;35.40;94417.25;4955415;29;19925;-82
2021/05/05 08:38:36;;;;;;;;;;;;;;;23.15;34.41;94429.97;4956027;28;19923;-83
2021/05/05 08:41:04;;;;;;;;;;;;;;;23.31;33.80;94432.84;4955277;28;19919;-82
2021/05/05 08:43:49;;;;;;;;;;;;;;;23.43;33.42;94435.59;4953183;28;19926;-82
2021/05/05 08:46:15;;;;;;;;;;;;;;;23.71;32.34;94422.63;4949082;28;19925;-82
2021/05/05 08:48:40;;;;;;;;;;;;;;;23.75;32.46;94423.50;4953122;28;19918;-81
2021/05/05 08:51:08;;;;;;;;;;;;;;;23.83;32.72;94438.63;4954230;28;19922;-82
2021/05/05 08:53:41;;;;;;;;;;;;;;;23.32;33.47;94432.53;5008765;22;19946;-82
2021/05/05 08:56:06;;;;;;;;;;;;;;;23.15;33.22;94435.28;4965588;28;19922;-82
2021/05/05 08:58:37;;;;;;;;;;;;;;;23.21;33.78;94431.31;4967955;28;19942;-82
2021/05/05 09:01:03;;;;;;;;;;;;;;;23.40;33.60;94422.94;4979793;28;19957;-79
2021/05/05 09:03:40;;;;;;;;;;;;;;;23.57;33.33;94427.38;4946770;28;19925;-82
2021/05/05 09:06:05;;;;;;;;;;;;;;;23.86;32.91;94414.06;4947342;28;19996;-82
2021/05/05 09:08:31;;;;;;;;;;;;;;;24.11;32.81;94416.84;4945767;28;19960;-82
2021/05/05 09:11:06;;;;;;;;;;;;;;;24.19;32.84;94423.94;4962485;28;20012;-81
2021/05/05 09:13:48;;;;;;;;;;;;;;;23.88;33.04;94419.81;4988609;28;19933;-82
2021/05/05 09:16:14;;;;;;;;;;;;;;;24.02;32.15;94419.56;5035950;22;19922;-83
2021/05/05 09:19:13;;;;;;;;;;;;;;;24.04;32.04;94414.69;4968263;28;19918;-83
2021/05/05 09:21:45;;;;;;;;;;;;;;;23.62;33.10;94413.94;4946232;28;19929;-82
2021/05/05 09:24:21;;;;;;;;;;;;;;;22.22;35.23;94404.19;5135981;22;19926;-81
2021/05/05 09:26:57;;;;;;;;;;;;;;;22.20;35.90;94416.22;5014267;22;19927;-82
2021/05/05 09:29:43;;;;;;;;;;;;;;;22.31;35.71;94412.94;5001907;28;19925;-82
2021/05/05 09:32:08;;;;;;;;;;;;;;;22.35;35.80;94423.66;5001947;28;19917;-82
2021/05/05 09:34:34;;;;;;;;;;;;;;;22.40;36.74;94426.13;5004118;28;20001;-81
2021/05/05 09:37:00;;;;;;;;;;;;;;;22.37;36.08;94416.19;5002945;28;19922;-80
2021/05/05 09:39:26;;;;;;;;;;;;;;;22.30;35.81;94410.59;5000054;28;19979;-79
2021/05/05 09:41:52;;;;;;;;;;;;;;;22.13;36.28;94417.47;5021497;28;20309;-79
2021/05/05 09:44:17;;;;;;;;;;;;;;;22.24;36.49;94415.25;5002380;28;19917;-82
2021/05/05 09:46:44;;;;;;;;;;;;;;;22.29;36.23;94403.72;5002828;28;20023;-82
2021/05/05 09:49:18;;;;;;;;;;;;;;;22.15;36.21;94403.91;4998590;28;19973;-80
2021/05/05 09:52:01;;;;;;;;;;;;;;;22.03;36.47;94396.56;5004454;28;19967;-80
2021/05/05 09:54:30;;;;;;;;;;;;;;;22.27;36.22;94385.50;4999961;28;20439;-82
2021/05/05 09:57:17;;;;;;;;;;;;;;;22.47;35.92;94389.34;5003947;28;20012;-82
2021/05/05 10:00:01;;;;;;;;;;;;;;;22.56;36.07;94379.50;5016173;28;20510;-82
2021/05/05 10:02:27;;;;;;;;;;;;;;;22.49;36.67;94378.44;5022991;28;19918;-83
2021/05/05 10:04:56;;;;;;;;;;;;;;;22.89;35.24;94378.91;4988515;28;19921;-82
2021/05/05 10:07:21;;;;;;;;;;;;;;;23.15;34.92;94379.56;4996001;28;19926;-82
2021/05/05 10:09:47;;;;;;;;;;;;;;;23.12;34.46;94382.88;5030077;28;19918;-81
2021/05/05 10:14:48;;;;;;;;;;;;;;;23.12;33.46;94374.91;5417352;22;19944;-80
2021/05/05 10:17:13;;;;;;;;;;;;;;;23.02;34.14;94375.28;4987095;28;19924;-80
2021/05/05 10:19:39;;;;;;;;;;;;;;;23.22;34.74;94366.56;4987225;28;19929;-80
2021/05/05 10:22:06;;;;;;;;;;;;;;;23.42;33.57;94361.59;4985291;28;19918;-80
2021/05/05 10:24:31;;;;;;;;;;;;;;;23.71;33.08;94360.78;4979596;28;19918;-80
2021/05/05 10:26:57;;;;;;;;;;;;;;;23.94;32.24;94349.50;4976245;28;19925;-81
2021/05/05 10:29:22;;;;;;;;;;;;;;;24.05;31.76;94352.50;4958729;28;19921;-80
2021/05/05 10:31:51;;;;;;;;;;;;;;;24.13;31.79;94351.66;5012571;23;19993;-81
2021/05/05 10:34:28;;;;;;;;;;;;;;;24.35;31.21;94357.69;4994101;28;19929;-82
2021/05/05 10:39:31;;;;;;;;;;;;;;;24.50;31.05;94344.53;5585310;22;19922;-82
2021/05/05 10:42:03;;;;;;;;;;;;;;;24.56;30.92;94345.09;4987050;28;20058;-80
2021/05/05 10:44:38;;;;;;;;;;;;;;;24.76;31.33;94343.47;5008920;23;19922;-81
2021/05/05 10:47:14;;;;;;;;;;;;;;;25.00;30.75;94343.47;4993082;28;20593;-81
2021/05/05 10:49:55;;;;;;;;;;;;;;;25.22;30.05;94342.25;4974567;28;19989;-81
2021/05/05 10:52:20;;;;;;;;;;;;;;;25.41;30.11;94339.00;4975110;28;19918;-81
2021/05/05 10:54:50;;;;;;;;;;;;;;;25.27;30.68;94338.56;4958351;28;19976;-82
2021/05/05 10:57:15;;;;;;;;;;;;;;;25.20;30.27;94333.03;4957508;28;19953;-82
2021/05/05 11:00:03;;;;;;;;;;;;;;;25.15;30.56;94331.38;4973988;28;19944;-80
2021/05/05 11:03:03;;;;;;;;;;;;;;;24.95;30.45;94322.41;4972914;28;20388;-80
2021/05/05 11:05:25;;;;;;;;;;;;;;;24.89;31.29;94328.25;4973820;28;19926;-81
2021/05/05 11:07:57;;;;;;;;;;;;;;;24.82;31.17;94326.16;4974914;28;20137;-81
2021/05/05 11:10:32;;;;;;;;;;;;;;;24.67;30.93;94326.84;4973354;28;19925;-81
2021/05/05 11:13:19;;;;;;;;;;;;;;;24.74;30.78;94311.91;4974728;28;19922;-81
2021/05/05 11:15:45;;;;;;;;;;;;;;;24.60;31.52;94310.66;4974068;28;19918;-81
2021/05/05 11:18:29;;;;;;;;;;;;;;;24.60;31.11;94306.13;4974853;28;19925;-81
2021/05/05 11:21:07;;;;;;;;;;;;;;;24.65;30.59;94313.09;4989058;28;20053;-80
2021/05/05 11:23:32;;;;;;;;;;;;;;;24.81;31.36;94311.31;4976286;28;19990;-82
2021/05/05 11:26:13;;;;;;;;;;;;;;;24.90;30.01;94309.34;4976785;28;19969;-82
2021/05/05 11:28:57;;;;;;;;;;;;;;;24.84;30.95;94300.00;4984800;28;19922;-80
2021/05/05 11:31:41;;;;;;;;;;;;;;;24.85;28.89;94301.56;4982366;28;20370;-81
2021/05/05 11:34:07;;;;;;;;;;;;;;;24.83;29.67;94298.47;4978218;28;19918;-82
2021/05/05 11:36:32;;;;;;;;;;;;;;;24.69;29.29;94298.03;4980247;28;19929;-80
2021/05/05 11:38:58;;;;;;;;;;;;;;;24.60;28.21;94286.75;4976688;28;19922;-81
2021/05/05 11:41:25;;;;;;;;;;;;;;;24.52;27.53;94283.84;4972196;28;19922;-81
2021/05/05 11:43:51;;;;;;;;;;;;;;;24.49;27.15;94284.53;4973857;28;19976;-81
2021/05/05 11:46:16;;;;;;;;;;;;;;;24.51;27.46;94287.63;4980101;28;19913;-81
2021/05/05 11:48:42;;;;;;;;;;;;;;;24.42;28.20;94271.03;4975626;28;19914;-79
2021/05/05 11:51:26;;;;;;;;;;;;;;;24.34;30.28;94285.19;4971552;28;19960;-81
2021/05/05 11:53:52;;;;;;;;;;;;;;;24.18;28.50;94281.59;4972211;28;19948;-81
2021/05/05 11:56:21;;;;;;;;;;;;;;;24.32;27.14;94283.97;4973615;28;19922;-81
2021/05/05 11:58:57;;;;;;;;;;;;;;;24.45;26.36;94288.97;4989497;28;19977;-81
2021/05/05 12:01:28;;;;;;;;;;;;;;;24.67;27.09;94278.97;4956305;28;20005;-81
2021/05/05 12:04:05;;;;;;;;;;;;;;;24.85;26.64;94281.06;4974360;28;19918;-81
2021/05/05 12:06:47;;;;;;;;;;;;;;;25.13;26.43;94280.38;4972764;28;19926;-81
2021/05/05 12:09:26;;;;;;;;;;;;;;;25.28;26.24;94276.25;4956163;28;20342;-81
2021/05/05 12:12:10;;;;;;;;;;;;;;;25.43;26.77;94278.97;4955837;28;19973;-81
2021/05/05 12:14:35;;;;;;;;;;;;;;;25.50;26.88;94262.41;4974375;28;19950;-81
2021/05/05 12:17:15;;;;;;;;;;;;;;;25.46;26.97;94261.53;4974197;28;20440;-81
2021/05/05 12:19:40;;;;;;;;;;;;;;;25.38;26.74;94265.13;4973116;28;19928;-81
2021/05/05 12:22:12;;;;;;;;;;;;;;;25.26;26.81;94260.63;4989265;22;19922;-82
2021/05/05 12:24:37;;;;;;;;;;;;;;;25.10;27.18;94255.22;4994646;28;19975;-85
2021/05/05 12:27:07;;;;;;;;;;;;;;;24.82;27.66;94254.38;5000401;28;19925;-85
2021/05/05 12:29:32;;;;;;;;;;;;;;;24.57;27.34;94248.31;4982834;28;19925;-82
2021/05/05 12:31:57;;;;;;;;;;;;;;;24.56;27.69;94257.38;4999637;28;19918;-83
2021/05/05 12:34:22;;;;;;;;;;;;;;;24.65;27.01;94249.28;5061884;22;19926;-79
2021/05/05 12:36:48;;;;;;;;;;;;;;;24.81;27.08;94242.97;4977015;28;19977;-83
2021/05/05 12:39:14;;;;;;;;;;;;;;;24.72;27.46;94244.94;4972708;28;19922;-81
2021/05/05 12:41:42;;;;;;;;;;;;;;;24.62;27.86;94234.00;4979455;28;19925;-81
2021/05/05 12:44:07;;;;;;;;;;;;;;;24.64;27.48;94234.44;4974968;28;19917;-82
2021/05/05 12:46:33;;;;;;;;;;;;;;;24.57;28.14;94232.38;4971446;28;20301;-82
2021/05/05 12:48:58;;;;;;;;;;;;;;;24.60;27.92;94230.91;4965914;28;19925;-78
2021/05/05 12:51:24;;;;;;;;;;;;;;;24.81;28.46;94228.88;4961957;28;20350;-78
2021/05/05 12:53:52;;;;;;;;;;;;;;;24.80;28.96;94240.63;4962611;28;19958;-77
2021/05/05 12:56:19;;;;;;;;;;;;;;;24.87;27.48;94222.22;4967350;28;20017;-78
2021/05/05 12:58:45;;;;;;;;;;;;;;;24.79;29.19;94223.13;4981927;23;20079;-78
2021/05/05 13:01:11;;;;;;;;;;;;;;;24.68;27.64;94227.34;4973482;28;19918;-80
2021/05/05 13:03:43;;;;;;;;;;;;;;;24.69;28.63;94234.22;4976496;28;19918;-80
2021/05/05 13:06:10;;;;;;;;;;;;;;;24.77;28.34;94225.34;4974078;28;19918;-80
2021/05/05 13:08:37;;;;;;;;;;;;;;;24.83;28.34;94231.97;4956115;28;20373;-80
2021/05/05 13:11:06;;;;;;;;;;;;;;;24.93;27.33;94228.09;4979308;28;19925;-83
2021/05/05 13:13:48;;;;;;;;;;;;;;;25.07;27.80;94229.31;5065122;23;19977;-78
2021/05/05 13:29:50;;;;;;;;;;;;;;;25.21;27.11;94233.47;4983184;28;19933;-82
2021/05/05 13:32:43;;;;;;;;;;;;;;;25.11;27.41;94240.81;4982588;28;19921;-86
2021/05/05 13:35:26;;;;;;;;;;;;;;;25.10;28.25;94239.28;5006511;28;20467;-86
2021/05/05 13:37:59;;;;;;;;;;;;;;;25.09;28.54;94242.28;4991434;28;19918;-87
2021/05/05 13:40:25;;;;;;;;;;;;;;;24.96;29.25;94244.16;4984957;28;19961;-86
2021/05/05 13:42:52;;;;;;;;;;;;;;;24.67;30.65;94253.16;4986901;28;19918;-87
2021/05/05 13:45:19;;;;;;;;;;;;;;;24.34;31.15;94253.28;4971195;28;20492;-86
2021/05/05 13:47:47;;;;;;;;;;;;;;;24.16;31.72;94267.84;4990702;28;19925;-86